createdAt,value
2018-07-02T00:01:03.626Z,71.33
2018-07-02T00:04:06.596Z,72.08
2018-07-02T00:07:12.350Z,72.97
2018-07-02T00:10:15.397Z,72.98
2018-07-02T00:13:18.397Z,73.44
2018-07-02T00:16:21.473Z,73.67
2018-07-02T00:19:24.790Z,72.97
2018-07-02T00:22:28.926Z,72.47
2018-07-02T00:25:31.938Z,72.14
2018-07-02T00:28:35.083Z,71.47
2018-07-02T00:31:39.184Z,71.61
2018-07-02T00:34:43.205Z,72.97
2018-07-02T00:37:47.301Z,73.84
2018-07-02T00:40:50.394Z,74.50
2018-07-02T00:43:53.382Z,76.15
2018-07-02T00:46:56.397Z,76.16
2018-07-02T00:49:59.421Z,76.92
2018-07-02T00:53:03.562Z,75.56
2018-07-02T00:56:06.616Z,74.20
2018-07-02T00:59:09.612Z,73.32
2018-07-02T01:02:12.633Z,72.88
2018-07-02T01:05:15.682Z,72.48
2018-07-02T01:08:19.829Z,71.34
2018-07-02T01:11:22.969Z,72.59
2018-07-02T01:14:26.035Z,73.10
2018-07-02T01:17:30.129Z,74.60
2018-07-02T01:20:33.143Z,75.14
2018-07-02T01:23:36.269Z,75.64
2018-07-02T01:26:39.373Z,75.26
2018-07-02T01:29:42.306Z,75.01
2018-07-02T01:32:45.304Z,74.96
2018-07-02T01:35:49.272Z,76.74
2018-07-02T01:38:52.296Z,76.03
2018-07-02T01:41:55.650Z,75.23
2018-07-02T01:44:58.694Z,75.46
2018-07-02T01:48:01.663Z,76.06
2018-07-02T01:51:04.751Z,77.29
2018-07-02T01:54:07.805Z,77.31
2018-07-02T01:57:10.873Z,77.48
2018-07-02T02:00:15.011Z,77.98
2018-07-02T02:03:18.050Z,79.01
2018-07-02T02:06:21.118Z,79.23
2018-07-02T02:09:24.126Z,79.15
2018-07-02T02:12:27.200Z,79.14
2018-07-02T02:15:30.358Z,78.73
2018-07-02T02:18:33.328Z,77.49
2018-07-02T02:21:36.560Z,76.57
2018-07-02T02:24:40.610Z,78.27
2018-07-02T02:27:43.685Z,77.67
2018-07-02T02:30:46.783Z,77.19
2018-07-02T02:33:49.894Z,77.70
2018-07-02T02:36:53.010Z,78.67
2018-07-02T02:39:55.961Z,77.64
2018-07-02T02:42:58.992Z,77.00
2018-07-02T02:46:01.977Z,75.16
2018-07-02T02:49:05.276Z,76.99
2018-07-02T02:52:08.297Z,78.53
2018-07-02T02:55:11.274Z,79.29
2018-07-02T02:58:14.245Z,80.36
2018-07-02T03:01:18.293Z,80.55
2018-07-02T03:04:21.298Z,80.14
2018-07-02T03:07:24.254Z,78.76
2018-07-02T03:10:28.260Z,78.06
2018-07-02T03:13:32.304Z,79.08
2018-07-02T03:16:35.287Z,79.08
2018-07-02T03:19:38.308Z,78.69
2018-07-02T03:22:41.332Z,78.88
2018-07-02T03:25:44.323Z,77.86
2018-07-02T03:28:47.842Z,77.60
2018-07-02T03:31:50.809Z,78.39
2018-07-02T03:34:53.894Z,79.72
2018-07-02T03:37:57.104Z,78.44
2018-07-02T03:41:00.095Z,77.69
2018-07-02T03:44:03.189Z,76.98
2018-07-02T03:47:06.232Z,75.82
2018-07-02T03:50:09.318Z,76.83
2018-07-02T03:53:13.329Z,77.64
2018-07-02T03:56:16.392Z,79.63
2018-07-02T03:59:19.367Z,79.49
2018-07-02T04:02:22.378Z,79.05
2018-07-02T04:05:25.361Z,72.10
2018-07-02T04:08:28.412Z,58.46
2018-07-02T04:11:31.382Z,50.52
2018-07-02T04:14:34.441Z,46.55
2018-07-02T04:17:37.442Z,43.80
2018-07-02T04:20:42.458Z,41.65
2018-07-02T04:23:45.456Z,39.19
2018-07-02T04:26:49.034Z,37.91
2018-07-02T04:29:52.035Z,36.85
2018-07-02T04:32:55.043Z,36.18
2018-07-02T04:35:58.014Z,35.27
2018-07-02T04:39:01.031Z,39.80
2018-07-02T04:42:05.235Z,38.24
2018-07-02T04:45:08.357Z,36.30
2018-07-02T04:48:11.612Z,37.26
2018-07-02T04:51:14.373Z,35.63
2018-07-02T04:54:17.318Z,31.50
2018-07-02T04:57:20.528Z,30.78
2018-07-02T05:00:23.636Z,28.18
2018-07-02T05:03:26.731Z,26.50
2018-07-02T05:06:29.682Z,25.09
2018-07-02T05:09:33.104Z,25.97
2018-07-02T05:12:36.079Z,25.72
2018-07-02T05:15:39.132Z,25.22
2018-07-02T05:18:42.103Z,24.78
2018-07-02T05:21:45.084Z,24.86
2018-07-02T05:24:48.066Z,24.79
2018-07-02T05:27:51.103Z,24.42
2018-07-02T05:30:54.022Z,23.58
2018-07-02T05:33:57.252Z,23.88
2018-07-02T05:37:00.018Z,24.24
2018-07-02T05:40:03.952Z,23.72
2018-07-02T05:43:06.947Z,25.65
2018-07-02T05:46:09.906Z,26.43
2018-07-02T05:49:12.930Z,26.64
2018-07-02T05:52:15.962Z,25.36
2018-07-02T05:55:18.966Z,24.43
2018-07-02T05:58:22.029Z,25.07
2018-07-02T06:01:25.050Z,24.65
2018-07-02T06:04:28.233Z,25.52
2018-07-02T06:07:31.316Z,25.78
2018-07-02T06:10:34.268Z,23.84
2018-07-02T06:13:37.298Z,22.26
2018-07-02T06:16:40.455Z,22.02
2018-07-02T06:19:43.363Z,22.46
2018-07-02T06:22:46.418Z,24.09
2018-07-02T06:25:49.422Z,22.60
2018-07-02T06:28:52.603Z,23.70
2018-07-02T06:31:55.657Z,22.88
2018-07-02T06:34:58.714Z,22.00
2018-07-02T06:38:01.825Z,22.36
2018-07-02T06:41:04.907Z,20.12
2018-07-02T06:44:07.936Z,21.07
2018-07-02T06:47:11.970Z,21.49
2018-07-02T06:50:14.921Z,20.89
2018-07-02T06:53:17.930Z,20.81
2018-07-02T06:56:22.037Z,22.16
2018-07-02T06:59:25.039Z,22.05
2018-07-02T07:02:28.003Z,20.63
2018-07-02T07:05:30.956Z,21.22
2018-07-02T07:08:33.941Z,21.51
2018-07-02T07:11:37.001Z,20.24
2018-07-02T07:14:39.917Z,19.37
2018-07-02T07:17:42.962Z,20.02
2018-07-02T07:20:45.962Z,21.46
2018-07-02T07:23:49.001Z,20.64
2018-07-02T07:26:52.046Z,21.05
2018-07-02T07:29:55.036Z,20.51
2018-07-02T07:32:58.476Z,20.76
2018-07-02T07:36:01.774Z,22.27
2018-07-02T07:39:07.155Z,20.57
2018-07-02T07:42:10.144Z,21.64
2018-07-02T07:45:13.143Z,21.93
2018-07-02T07:48:16.114Z,23.28
2018-07-02T07:51:20.147Z,22.69
2018-07-02T07:54:23.116Z,23.04
2018-07-02T07:57:26.127Z,24.40
2018-07-02T08:00:30.177Z,24.45
2018-07-02T08:03:33.356Z,25.40
2018-07-02T08:06:36.354Z,25.05
2018-07-02T08:09:39.383Z,25.30
2018-07-02T08:12:42.409Z,26.27
2018-07-02T08:15:45.425Z,26.88
2018-07-02T08:18:48.514Z,28.65
2018-07-02T08:21:51.486Z,28.67
2018-07-02T08:24:54.446Z,29.17
2018-07-02T08:27:57.457Z,28.93
2018-07-02T08:31:00.465Z,30.24
2018-07-02T08:34:04.527Z,30.01
2018-07-02T08:37:07.569Z,29.66
2018-07-02T08:40:11.584Z,29.92
2018-07-02T08:43:14.570Z,29.88
2018-07-02T08:46:17.699Z,29.22
2018-07-02T08:49:21.144Z,28.37
2018-07-02T08:52:24.226Z,28.86
2018-07-02T08:55:27.352Z,28.91
2018-07-02T08:58:30.428Z,29.21
2018-07-02T09:01:33.403Z,28.41
2018-07-02T09:04:37.518Z,28.51
2018-07-02T09:07:40.513Z,28.43
2018-07-02T09:10:43.485Z,27.34
2018-07-02T09:13:46.479Z,28.67
2018-07-02T09:16:49.450Z,28.01
2018-07-02T09:19:52.482Z,27.95
2018-07-02T09:22:55.494Z,27.36
2018-07-02T09:25:58.466Z,28.33
2018-07-02T09:29:01.700Z,28.35
2018-07-02T09:32:04.722Z,27.76
2018-07-02T09:35:08.776Z,28.22
2018-07-02T09:38:11.727Z,26.33
2018-07-02T09:41:14.697Z,27.31
2018-07-02T09:44:17.708Z,27.19
2018-07-02T09:47:20.781Z,27.27
2018-07-02T09:50:24.877Z,25.92
2018-07-02T09:53:27.834Z,26.58
2018-07-02T09:56:31.493Z,26.05
2018-07-02T09:59:34.526Z,27.17
2018-07-02T10:02:37.590Z,26.36
2018-07-02T10:05:40.611Z,27.03
2018-07-02T10:08:43.600Z,27.61
2018-07-02T10:11:46.850Z,27.56
2018-07-02T10:14:49.852Z,26.27
2018-07-02T10:17:52.843Z,25.75
2018-07-02T10:20:55.852Z,26.75
2018-07-02T10:23:59.001Z,25.57
2018-07-02T10:27:02.127Z,25.23
2018-07-02T10:30:05.143Z,25.75
2018-07-02T10:33:09.114Z,24.40
2018-07-02T10:36:12.093Z,25.56
2018-07-02T10:39:15.127Z,25.64
2018-07-02T10:42:18.211Z,24.73
2018-07-02T10:45:21.246Z,24.35
2018-07-02T10:48:24.316Z,24.24
2018-07-02T10:51:27.342Z,23.30
2018-07-02T10:54:30.325Z,26.34
2018-07-02T10:57:33.350Z,25.71
2018-07-02T11:00:36.333Z,25.47
2018-07-02T11:03:39.274Z,24.82
2018-07-02T11:06:42.203Z,25.34
2018-07-02T11:09:45.176Z,25.86
2018-07-02T11:12:48.171Z,26.04
2018-07-02T11:15:52.238Z,24.51
2018-07-02T11:18:55.331Z,25.13
2018-07-02T11:21:59.408Z,25.55
2018-07-02T11:25:02.382Z,25.13
2018-07-02T11:28:05.413Z,24.40
2018-07-02T11:31:08.427Z,23.52
2018-07-02T11:34:11.480Z,24.64
2018-07-02T11:37:14.401Z,23.27
2018-07-02T11:40:17.504Z,23.96
2018-07-02T11:43:20.516Z,26.13
2018-07-02T11:46:23.779Z,24.69
2018-07-02T11:49:26.909Z,23.58
2018-07-02T11:52:30.022Z,24.23
2018-07-02T11:55:34.100Z,24.51
2018-07-02T11:58:38.151Z,24.38
2018-07-02T12:01:41.144Z,24.54
2018-07-02T12:04:44.222Z,23.68
2018-07-02T12:07:47.347Z,23.39
2018-07-02T12:10:50.349Z,23.78
2018-07-02T12:13:53.455Z,22.88
2018-07-02T12:16:56.487Z,23.77
2018-07-02T12:20:00.110Z,21.81
2018-07-02T12:23:03.233Z,24.65
2018-07-02T12:26:07.350Z,22.85
2018-07-02T12:29:10.431Z,22.65
2018-07-02T12:32:13.431Z,22.28
2018-07-02T12:35:16.481Z,21.61
2018-07-02T12:38:19.542Z,23.51
2018-07-02T12:41:22.566Z,21.04
2018-07-02T12:44:25.981Z,21.13
2018-07-02T12:47:28.997Z,21.46
2018-07-02T12:50:31.995Z,21.85
2018-07-02T12:53:34.918Z,21.69
2018-07-02T12:56:37.977Z,22.11
2018-07-02T12:59:40.982Z,21.61
2018-07-02T13:02:43.962Z,21.79
2018-07-02T13:05:46.936Z,21.91
2018-07-02T13:08:50.063Z,20.68
2018-07-02T13:11:53.146Z,21.07
2018-07-02T13:14:56.144Z,21.66
2018-07-02T13:17:59.145Z,19.81
2018-07-02T13:21:02.260Z,20.15
2018-07-02T13:24:05.654Z,20.25
2018-07-02T13:27:09.625Z,20.99
2018-07-02T13:30:12.662Z,20.74
2018-07-02T13:33:15.738Z,18.86
2018-07-02T13:36:18.771Z,18.51
2018-07-02T13:39:21.848Z,19.50
2018-07-02T13:42:24.864Z,19.21
2018-07-02T13:45:28.146Z,20.07
2018-07-02T13:48:31.153Z,19.93
2018-07-02T13:51:34.211Z,19.93
2018-07-02T13:54:37.367Z,19.21
2018-07-02T13:57:40.385Z,17.98
2018-07-02T14:00:43.434Z,18.80
2018-07-02T14:03:46.391Z,19.13
2018-07-02T14:06:49.403Z,19.11
2018-07-02T14:09:52.571Z,20.31
2018-07-02T14:12:55.563Z,19.57
2018-07-02T14:15:58.760Z,18.75
2018-07-02T14:19:01.714Z,20.25
2018-07-02T14:22:04.772Z,20.79
2018-07-02T14:25:07.853Z,21.18
2018-07-02T14:28:10.874Z,21.33
2018-07-02T14:31:14.010Z,20.75
2018-07-02T14:34:16.943Z,19.20
2018-07-02T14:37:19.981Z,19.47
2018-07-02T14:40:22.998Z,19.62
2018-07-02T14:43:25.999Z,20.37
2018-07-02T14:46:29.090Z,20.68
2018-07-02T14:49:32.175Z,20.76
2018-07-02T14:52:35.264Z,21.25
2018-07-02T14:55:38.265Z,21.26
2018-07-02T14:58:41.365Z,21.38
2018-07-02T15:01:44.438Z,19.99
2018-07-02T15:04:47.405Z,19.23
2018-07-02T15:07:50.394Z,18.79
2018-07-02T15:10:53.438Z,19.56
2018-07-02T15:13:56.651Z,19.11
2018-07-02T15:16:59.744Z,19.41
2018-07-02T15:20:02.983Z,17.67
2018-07-02T15:23:06.049Z,18.13
2018-07-02T15:26:09.116Z,18.09
2018-07-02T15:29:12.128Z,17.38
2018-07-02T15:32:15.212Z,18.40
2018-07-02T15:35:20.066Z,19.93
2018-07-02T15:38:23.089Z,20.12
2018-07-02T15:41:26.293Z,18.91
2018-07-02T15:44:29.414Z,19.05
2018-07-02T15:47:33.490Z,17.47
2018-07-02T15:50:36.632Z,19.30
2018-07-02T15:53:39.661Z,20.72
2018-07-02T15:56:42.749Z,19.04
2018-07-02T15:59:45.857Z,18.56
2018-07-02T16:02:48.886Z,18.54
2018-07-02T16:05:51.872Z,19.64
2018-07-02T16:08:54.854Z,20.39
2018-07-02T16:11:57.794Z,18.71
2018-07-02T16:15:00.784Z,19.13
2018-07-02T16:18:03.762Z,19.66
2018-07-02T16:21:06.777Z,20.86
2018-07-02T16:24:10.209Z,20.21
2018-07-02T16:27:13.433Z,20.35
2018-07-02T16:30:16.445Z,20.76
2018-07-02T16:33:20.418Z,20.00
2018-07-02T16:36:23.410Z,18.82
2018-07-02T16:39:26.405Z,19.37
2018-07-02T16:42:29.597Z,19.81
2018-07-02T16:45:33.678Z,19.55
2018-07-02T16:48:36.713Z,18.37
2018-07-02T16:51:39.704Z,19.51
2018-07-02T16:54:42.769Z,18.51
2018-07-02T16:57:45.811Z,19.24
2018-07-02T17:00:48.872Z,18.90
2018-07-02T17:03:51.841Z,17.79
2018-07-02T17:06:54.811Z,17.03
2018-07-02T17:09:57.866Z,17.68
2018-07-02T17:13:00.942Z,17.72
2018-07-02T17:16:05.042Z,16.86
2018-07-02T17:19:08.192Z,17.33
2018-07-02T17:22:11.322Z,16.82
2018-07-02T17:25:14.302Z,16.24
2018-07-02T17:28:17.338Z,17.46
2018-07-02T17:31:20.416Z,18.21
2018-07-02T17:34:23.362Z,18.49
2018-07-02T17:37:26.373Z,18.14
2018-07-02T17:40:29.390Z,18.02
2018-07-02T17:43:32.493Z,19.40
2018-07-02T17:46:35.684Z,19.93
2018-07-02T17:49:38.663Z,19.56
2018-07-02T17:52:41.644Z,19.21
2018-07-02T17:55:44.614Z,19.30
2018-07-02T17:58:47.606Z,19.69
2018-07-02T18:01:50.975Z,19.85
2018-07-02T18:04:53.933Z,19.98
2018-07-02T18:07:56.986Z,20.03
2018-07-02T18:10:59.997Z,21.06
2018-07-02T18:14:03.599Z,21.63
2018-07-02T18:17:12.370Z,21.32
2018-07-02T18:20:15.348Z,22.00
2018-07-02T18:23:22.850Z,22.18
2018-07-02T18:26:25.769Z,23.54
2018-07-02T18:29:31.301Z,23.40
2018-07-02T18:32:34.298Z,22.88
2018-07-02T18:35:37.407Z,23.88
2018-07-02T18:38:40.558Z,23.47
2018-07-02T18:41:43.641Z,23.05
2018-07-02T18:44:46.755Z,25.10
2018-07-02T18:47:51.759Z,24.73
2018-07-02T18:50:54.826Z,24.75
2018-07-02T18:53:59.529Z,25.62
2018-07-02T18:57:02.632Z,25.72
2018-07-02T19:00:05.943Z,26.46
2018-07-02T19:03:08.955Z,26.52
2018-07-02T19:06:12.047Z,27.10
2018-07-02T19:09:15.101Z,28.13
2018-07-02T19:12:18.108Z,28.69
2018-07-02T19:15:22.142Z,28.86
2018-07-02T19:18:25.201Z,29.50
2018-07-02T19:21:28.236Z,30.69
2018-07-02T19:24:32.220Z,32.11
2018-07-02T19:27:35.195Z,33.89
2018-07-02T19:30:38.302Z,36.93
2018-07-02T19:33:41.362Z,38.73
2018-07-02T19:36:44.473Z,40.99
2018-07-02T19:39:47.597Z,42.40
2018-07-02T19:42:50.862Z,43.89
2018-07-02T19:45:53.949Z,44.25
2018-07-02T19:48:56.902Z,43.95
2018-07-02T19:51:59.940Z,46.09
2018-07-02T19:55:03.051Z,47.59
2018-07-02T19:58:06.500Z,46.64
2018-07-02T20:01:09.568Z,45.34
2018-07-02T20:04:13.519Z,47.35
2018-07-02T20:07:16.635Z,49.16
2018-07-02T20:10:19.725Z,48.30
2018-07-02T20:13:22.713Z,48.35
2018-07-02T20:16:25.787Z,49.57
2018-07-02T20:19:28.922Z,50.08
2018-07-02T20:22:31.991Z,49.83
2018-07-02T20:25:35.092Z,49.90
2018-07-02T20:28:39.208Z,50.52
2018-07-02T20:31:43.388Z,50.20
2018-07-02T20:34:46.339Z,50.15
2018-07-02T20:37:49.410Z,50.68
2018-07-02T20:40:52.490Z,50.49
2018-07-02T20:43:55.555Z,50.59
2018-07-02T20:46:58.774Z,50.32
2018-07-02T20:50:01.895Z,50.19
2018-07-02T20:53:05.073Z,50.00
2018-07-02T20:56:09.268Z,51.06
2018-07-02T20:59:12.257Z,50.76
2018-07-02T21:02:16.072Z,50.09
2018-07-02T21:05:19.066Z,49.72
2018-07-02T21:08:22.178Z,50.15
2018-07-02T21:11:25.242Z,50.99
2018-07-02T21:14:28.228Z,50.74
2018-07-02T21:17:31.241Z,50.87
2018-07-02T21:20:35.314Z,51.31
2018-07-02T21:23:38.449Z,52.31
2018-07-02T21:26:41.505Z,52.51
2018-07-02T21:29:44.503Z,52.29
2018-07-02T21:32:47.574Z,51.44
2018-07-02T21:35:50.618Z,52.16
2018-07-02T21:38:53.599Z,52.61
2018-07-02T21:41:56.723Z,51.85
2018-07-02T21:45:00.748Z,51.61
2018-07-02T21:48:03.734Z,52.83
2018-07-02T21:51:07.922Z,53.52
2018-07-02T21:54:11.035Z,53.53
2018-07-02T21:57:14.031Z,54.17
2018-07-02T22:00:18.067Z,54.93
2018-07-02T22:03:22.158Z,55.82
2018-07-02T22:06:26.188Z,57.08
2018-07-02T22:09:29.178Z,58.82
2018-07-02T22:12:32.302Z,59.18
2018-07-02T22:15:36.533Z,60.56
2018-07-02T22:18:39.735Z,60.08
2018-07-02T22:21:42.817Z,60.56
2018-07-02T22:24:46.369Z,61.34
2018-07-02T22:27:49.449Z,61.26
2018-07-02T22:30:52.517Z,61.74
2018-07-02T22:33:55.584Z,61.63
2018-07-02T22:36:58.667Z,62.95
2018-07-02T22:40:01.885Z,62.89
2018-07-02T22:43:05.096Z,63.12
2018-07-02T22:46:08.143Z,64.62
2018-07-02T22:49:12.223Z,66.47
2018-07-02T22:52:15.297Z,66.68
2018-07-02T22:55:18.288Z,67.60
2018-07-02T22:58:21.377Z,68.46
2018-07-02T23:01:24.636Z,68.39
2018-07-02T23:04:27.713Z,66.39
2018-07-02T23:07:31.292Z,67.42
2018-07-02T23:10:34.574Z,67.51
2018-07-02T23:13:37.579Z,67.88
2018-07-02T23:16:41.624Z,67.83
2018-07-02T23:19:44.647Z,66.80
2018-07-02T23:22:58.859Z,66.82
2018-07-02T23:26:01.882Z,68.10
2018-07-02T23:29:04.909Z,69.09
2018-07-02T23:32:08.138Z,69.47
2018-07-02T23:35:12.199Z,70.42
2018-07-02T23:38:15.155Z,70.71
2018-07-02T23:41:18.221Z,70.68
2018-07-02T23:44:21.239Z,70.78
2018-07-02T23:47:24.234Z,71.66
2018-07-02T23:50:27.280Z,71.81
2018-07-02T23:53:30.350Z,71.40
2018-07-02T23:56:33.424Z,70.62
2018-07-02T23:59:36.356Z,71.75
